Terminal Aerodrome Forecast
Issued by NWS Wilmington, OH

Current Version | Previous Version | Text Only | Print | Product List | Glossary Off
Versions: 1 2 3 4 5 6 7 8 9 10 11 12 13 14 15 16 17 18 19 20 21 22 23 24

000
FTUS41 KILN 252116 AAA
TAFCVG
TAF AMD
KCVG 252116Z 2521/2624 25012KT P6SM SCT040
     FM260000 29004KT P6SM SCT250
     FM260900 VRB02KT 4SM BR SCT012
     FM261400 VRB02KT P6SM FEW025
     FM261800 26005KT P6SM SCT040=

USA.gov is the U.S. government's official web portal to all federal, state and local government web resources and services.